Terminal Aerodrome Forecast
Issued by NWS

Home | Current Version | Previous Version | Text Only | Print | Product List | Glossary On
Versions: 1 2 3 4 5 6 7 8 9 10 11 12
000
FTUS46 KMFR 250542
TAFRBG
TAF
KRBG 250542Z 2506/2606 00000KT P6SM -SHRA SCT025 OVC035
     FM250900 00000KT P6SM -SHRA SCT015 OVC025
     FM251900 33005KT P6SM VCSH SCT025 BKN050=

USA.gov is the U.S. government's official web portal to all federal, state and local government web resources and services.